createdAt,value
2022-12-11T00:00:01.833Z,1004.99
2022-12-11T00:01:01.796Z,1005.00
2022-12-11T00:02:01.821Z,1004.97
2022-12-11T00:03:01.894Z,1004.97
2022-12-11T00:04:01.797Z,1004.96
2022-12-11T00:05:01.796Z,1004.99
2022-12-11T00:06:01.788Z,1004.99
2022-12-11T00:07:01.758Z,1004.95
2022-12-11T00:08:01.805Z,1004.97
2022-12-11T00:09:01.715Z,1004.97
2022-12-11T00:10:01.741Z,1005.00
2022-12-11T00:11:01.745Z,1004.95
2022-12-11T00:12:01.698Z,1005.01
2022-12-11T00:13:01.674Z,1005.06
2022-12-11T00:14:01.664Z,1005.05
2022-12-11T00:15:01.660Z,1005.01
2022-12-11T00:16:01.665Z,1005.01
2022-12-11T00:17:01.723Z,1004.94
2022-12-11T00:18:01.632Z,1004.99
2022-12-11T00:19:01.644Z,1005.03
2022-12-11T00:20:01.603Z,1005.07
2022-12-11T00:21:01.604Z,1005.00
2022-12-11T00:22:01.585Z,1004.96
2022-12-11T00:23:01.631Z,1005.07
2022-12-11T00:24:01.565Z,1005.04
2022-12-11T00:25:01.602Z,1005.00
2022-12-11T00:26:01.555Z,1005.01
2022-12-11T00:27:01.533Z,1005.04
2022-12-11T00:28:01.543Z,1005.03
2022-12-11T00:29:01.512Z,1005.01
2022-12-11T00:30:01.566Z,1005.04
2022-12-11T00:31:01.492Z,1005.05
2022-12-11T00:32:01.558Z,1005.05
2022-12-11T00:33:01.483Z,1005.06
2022-12-11T00:34:01.478Z,1005.10
2022-12-11T00:35:01.612Z,1005.07
2022-12-11T00:36:01.471Z,1005.05
2022-12-11T00:37:01.509Z,1005.09
2022-12-11T00:38:01.421Z,1005.07
2022-12-11T00:39:01.460Z,1005.07
2022-12-11T00:40:01.400Z,1005.00
2022-12-11T00:41:01.442Z,1005.07
2022-12-11T00:42:01.373Z,1005.03
2022-12-11T00:43:01.367Z,1005.08
2022-12-11T00:44:01.349Z,1005.05
2022-12-11T00:45:01.339Z,1005.07
2022-12-11T00:46:01.465Z,1005.07
2022-12-11T00:47:01.336Z,1005.03
2022-12-11T00:48:01.317Z,1005.07
2022-12-11T00:49:01.301Z,1005.03
2022-12-11T00:50:01.307Z,1005.01
2022-12-11T00:51:01.286Z,1005.00
2022-12-11T00:52:01.318Z,1005.07
2022-12-11T00:53:01.266Z,1005.00
2022-12-11T00:54:01.247Z,1004.99
2022-12-11T00:55:01.267Z,1004.93
2022-12-11T00:56:01.227Z,1004.96
2022-12-11T00:57:01.216Z,1004.92
2022-12-11T00:58:01.288Z,1004.98
2022-12-11T00:59:01.218Z,1004.97
2022-12-11T01:00:01.186Z,1004.94
2022-12-11T01:01:01.320Z,1004.94
2022-12-11T01:02:01.236Z,1004.90
2022-12-11T01:03:01.254Z,1004.92
2022-12-11T01:04:01.185Z,1004.94
2022-12-11T01:05:01.151Z,1004.91
2022-12-11T01:06:01.143Z,1004.93
2022-12-11T01:07:01.126Z,1004.92
2022-12-11T01:08:01.160Z,1004.92
2022-12-11T01:09:01.115Z,1004.96
2022-12-11T01:10:01.130Z,1004.88
2022-12-11T01:11:01.078Z,1004.91
2022-12-11T01:12:01.066Z,1004.86
2022-12-11T01:13:01.072Z,1004.96
2022-12-11T01:14:01.035Z,1004.90
2022-12-11T01:15:01.077Z,1004.95
2022-12-11T01:16:01.023Z,1004.90
2022-12-11T01:17:01.092Z,1004.90
2022-12-11T01:18:01.004Z,1004.87
2022-12-11T01:19:01.048Z,1004.92
2022-12-11T01:20:01.003Z,1004.89
2022-12-11T01:21:01.022Z,1004.94
2022-12-11T01:22:00.981Z,1004.95
2022-12-11T01:23:00.967Z,1004.93
2022-12-11T01:24:00.940Z,1004.93
2022-12-11T01:25:00.993Z,1004.93
2022-12-11T01:26:00.944Z,1004.93
2022-12-11T01:27:00.951Z,1004.92
2022-12-11T01:28:00.903Z,1004.96
2022-12-11T01:29:00.918Z,1004.95
2022-12-11T01:30:00.872Z,1004.91
2022-12-11T01:31:08.415Z,1004.92
2022-12-11T01:32:00.856Z,1004.91
2022-12-11T01:33:00.898Z,1004.93
2022-12-11T01:34:00.867Z,1004.91
2022-12-11T01:35:01.016Z,1004.88
2022-12-11T01:36:00.866Z,1004.96
2022-12-11T01:37:00.804Z,1004.87
2022-12-11T01:38:00.814Z,1004.89
2022-12-11T01:39:10.557Z,1004.89
2022-12-11T01:40:00.824Z,1004.90
2022-12-11T01:41:00.766Z,1004.87
2022-12-11T01:42:00.787Z,1004.85
2022-12-11T01:43:00.757Z,1004.82
2022-12-11T01:44:00.780Z,1004.85
2022-12-11T01:45:00.764Z,1004.82
2022-12-11T01:46:00.790Z,1004.85
2022-12-11T01:47:01.150Z,1004.86
2022-12-11T01:48:00.736Z,1004.85
2022-12-11T01:49:00.696Z,1004.80
2022-12-11T01:50:00.685Z,1004.79
2022-12-11T01:51:00.723Z,1004.81
2022-12-11T01:52:00.657Z,1004.79
2022-12-11T01:53:00.644Z,1004.75
2022-12-11T01:54:00.633Z,1004.76
2022-12-11T01:55:00.650Z,1004.74
2022-12-11T01:56:00.614Z,1004.73
2022-12-11T01:57:00.644Z,1004.73
2022-12-11T01:58:00.591Z,1004.76
2022-12-11T01:59:00.594Z,1004.77
2022-12-11T02:00:00.615Z,1004.76
2022-12-11T02:01:00.629Z,1004.75
2022-12-11T02:02:00.553Z,1004.80
2022-12-11T02:03:00.543Z,1004.78
2022-12-11T02:04:00.531Z,1004.81
2022-12-11T02:05:00.562Z,1004.80
2022-12-11T02:06:00.517Z,1004.84
2022-12-11T02:07:00.501Z,1004.86
2022-12-11T02:08:00.559Z,1004.82
2022-12-11T02:09:00.502Z,1004.82
2022-12-11T02:10:00.478Z,1004.81
2022-12-11T02:11:00.511Z,1004.84
2022-12-11T02:12:00.573Z,1004.79
2022-12-11T02:13:00.456Z,1004.81
2022-12-11T02:14:00.432Z,1004.80
2022-12-11T02:15:00.420Z,1004.77
2022-12-11T02:16:00.440Z,1004.79
2022-12-11T02:17:00.430Z,1004.80
2022-12-11T02:18:00.491Z,1004.80
2022-12-11T02:19:00.391Z,1004.75
2022-12-11T02:20:00.358Z,1004.73
2022-12-11T02:22:10.807Z,1004.73
2022-12-11T02:23:10.739Z,1004.71
2022-12-11T02:24:10.733Z,1004.72
2022-12-11T02:25:10.972Z,1004.71
2022-12-11T02:26:10.686Z,1004.78
2022-12-11T02:27:10.704Z,1004.71
2022-12-11T02:28:10.686Z,1004.70
2022-12-11T02:29:10.646Z,1004.73
2022-12-11T02:30:10.657Z,1004.70
2022-12-11T02:31:10.673Z,1004.71
2022-12-11T02:32:10.828Z,1004.74
2022-12-11T02:33:10.628Z,1004.73
2022-12-11T02:34:10.612Z,1004.71
2022-12-11T02:35:10.974Z,1004.75
2022-12-11T02:36:10.618Z,1004.75
2022-12-11T02:37:10.568Z,1004.77
2022-12-11T02:38:10.597Z,1004.72
2022-12-11T02:39:10.554Z,1004.73
2022-12-11T02:40:10.643Z,1004.74
2022-12-11T02:41:10.579Z,1004.74
2022-12-11T02:42:10.576Z,1004.78
2022-12-11T02:43:10.534Z,1004.76
2022-12-11T02:44:10.505Z,1004.75
2022-12-11T02:45:10.815Z,1004.69
2022-12-11T02:46:10.515Z,1004.76
2022-12-11T02:47:10.482Z,1004.68
2022-12-11T02:48:10.468Z,1004.68
2022-12-11T02:49:10.443Z,1004.66
2022-12-11T02:50:10.444Z,1004.66
2022-12-11T02:51:10.474Z,1004.63
2022-12-11T02:52:10.431Z,1004.60
2022-12-11T02:53:10.414Z,1004.59
2022-12-11T02:54:10.395Z,1004.59
2022-12-11T02:55:10.725Z,1004.61
2022-12-11T02:56:10.461Z,1004.62
2022-12-11T02:57:10.369Z,1004.66
2022-12-11T02:58:10.358Z,1004.63
2022-12-11T02:59:10.341Z,1004.55
2022-12-11T03:00:12.092Z,1004.59
2022-12-11T03:01:10.493Z,1004.54
2022-12-11T03:02:10.364Z,1004.53
2022-12-11T03:03:10.299Z,1004.54
2022-12-11T03:04:10.302Z,1004.52
2022-12-11T03:05:10.561Z,1004.48
2022-12-11T03:06:10.315Z,1004.49
2022-12-11T03:07:10.256Z,1004.45
2022-12-11T03:08:10.339Z,1004.47
2022-12-11T03:09:10.239Z,1004.43
2022-12-11T03:10:10.246Z,1004.43
2022-12-11T03:11:10.228Z,1004.47
2022-12-11T03:12:10.238Z,1004.44
2022-12-11T03:13:10.259Z,1004.45
2022-12-11T03:14:10.190Z,1004.44
2022-12-11T03:15:10.554Z,1004.44
2022-12-11T03:16:10.244Z,1004.47
2022-12-11T03:17:10.157Z,1004.47
2022-12-11T03:18:10.156Z,1004.47
2022-12-11T03:19:10.176Z,1004.47
2022-12-11T03:20:10.125Z,1004.49
2022-12-11T03:21:10.114Z,1004.46
2022-12-11T03:22:10.156Z,1004.45
2022-12-11T03:23:10.106Z,1004.48
2022-12-11T03:24:10.080Z,1004.50
2022-12-11T03:25:10.383Z,1004.49
2022-12-11T03:26:10.055Z,1004.52
2022-12-11T03:27:11.337Z,1004.48
2022-12-11T03:28:10.035Z,1004.48
2022-12-11T03:29:10.046Z,1004.51
2022-12-11T03:30:10.077Z,1004.48
2022-12-11T03:31:10.067Z,1004.56
2022-12-11T03:32:09.997Z,1004.50
2022-12-11T03:33:10.056Z,1004.46
2022-12-11T03:34:09.985Z,1004.49
2022-12-11T03:35:10.064Z,1004.50
2022-12-11T03:36:09.991Z,1004.51
2022-12-11T03:37:09.947Z,1004.57
2022-12-11T03:38:09.950Z,1004.54
2022-12-11T03:39:09.923Z,1004.53
2022-12-11T03:40:09.913Z,1004.55
2022-12-11T03:41:09.955Z,1004.57
2022-12-11T03:42:09.896Z,1004.59
2022-12-11T03:43:09.910Z,1004.55
2022-12-11T03:44:09.873Z,1004.53
2022-12-11T03:45:10.279Z,1004.60
2022-12-11T03:46:09.874Z,1004.52
2022-12-11T03:47:09.871Z,1004.54
2022-12-11T03:48:09.833Z,1004.54
2022-12-11T03:49:09.819Z,1004.53
2022-12-11T03:50:09.839Z,1004.51
2022-12-11T03:51:09.802Z,1004.54
2022-12-11T03:52:09.810Z,1004.49
2022-12-11T03:53:10.070Z,1004.50
2022-12-11T03:54:09.779Z,1004.50
2022-12-11T03:55:10.019Z,1004.50
2022-12-11T03:56:09.748Z,1004.51
2022-12-11T03:57:09.730Z,1004.47
2022-12-11T03:58:09.747Z,1004.49
2022-12-11T03:59:11.537Z,1004.47
2022-12-11T04:00:09.726Z,1004.46
2022-12-11T04:01:09.692Z,1004.47
2022-12-11T04:02:09.732Z,1004.46
2022-12-11T04:03:13.215Z,1004.48
2022-12-11T04:04:09.681Z,1004.47
2022-12-11T04:05:09.947Z,1004.50
2022-12-11T04:06:09.644Z,1004.51
2022-12-11T04:07:09.629Z,1004.48
2022-12-11T04:08:09.721Z,1004.51
2022-12-11T04:09:09.691Z,1004.49
2022-12-11T04:10:09.610Z,1004.46
2022-12-11T04:11:09.588Z,1004.46
2022-12-11T04:12:09.578Z,1004.47
2022-12-11T04:13:09.613Z,1004.48
2022-12-11T04:14:09.562Z,1004.47
2022-12-11T04:15:09.842Z,1004.50
2022-12-11T04:16:09.581Z,1004.50
2022-12-11T04:17:09.528Z,1004.51
2022-12-11T04:18:09.525Z,1004.49
2022-12-11T04:19:09.628Z,1004.46
2022-12-11T04:20:09.512Z,1004.44
2022-12-11T04:21:09.498Z,1004.46
2022-12-11T04:22:09.475Z,1004.42
2022-12-11T04:23:09.505Z,1004.45
2022-12-11T04:24:09.446Z,1004.44
2022-12-11T04:25:09.919Z,1004.42
2022-12-11T04:26:09.445Z,1004.45
2022-12-11T04:27:09.436Z,1004.41
2022-12-11T04:28:09.407Z,1004.39
2022-12-11T04:29:09.644Z,1004.43
2022-12-11T04:30:09.387Z,1004.37
2022-12-11T04:31:09.412Z,1004.36
2022-12-11T04:32:09.376Z,1004.36
2022-12-11T04:33:09.362Z,1004.37
2022-12-11T04:34:09.396Z,1004.39
2022-12-11T04:35:09.679Z,1004.38
2022-12-11T04:36:09.364Z,1004.36
2022-12-11T04:37:09.316Z,1004.37
2022-12-11T04:38:09.324Z,1004.38
2022-12-11T04:39:09.294Z,1004.34
2022-12-11T04:40:09.291Z,1004.34
2022-12-11T04:41:09.273Z,1004.34
2022-12-11T04:42:09.311Z,1004.34
2022-12-11T04:43:09.255Z,1004.32
2022-12-11T04:44:09.250Z,1004.28
2022-12-11T04:45:09.574Z,1004.28
2022-12-11T04:46:09.337Z,1004.26
2022-12-11T04:47:09.274Z,1004.28
2022-12-11T04:48:09.203Z,1004.29
2022-12-11T04:49:09.185Z,1004.30
2022-12-11T04:50:09.180Z,1004.29
2022-12-11T04:51:09.162Z,1004.23
2022-12-11T04:52:09.153Z,1004.29
2022-12-11T04:53:09.183Z,1004.22
2022-12-11T04:54:09.141Z,1004.26
2022-12-11T04:55:09.443Z,1004.25
2022-12-11T04:56:09.117Z,1004.22
2022-12-11T04:57:09.129Z,1004.22
2022-12-11T04:58:09.093Z,1004.22
2022-12-11T04:59:09.550Z,1004.25
2022-12-11T05:00:09.080Z,1004.26
2022-12-11T05:01:09.057Z,1004.27
2022-12-11T05:02:09.108Z,1004.28
2022-12-11T05:03:09.242Z,1004.25
2022-12-11T05:04:09.028Z,1004.28
2022-12-11T05:05:09.290Z,1004.29
2022-12-11T05:06:09.031Z,1004.32
2022-12-11T05:07:08.990Z,1004.30
2022-12-11T05:08:09.090Z,1004.34
2022-12-11T05:09:09.039Z,1004.29
2022-12-11T05:10:08.972Z,1004.26
2022-12-11T05:11:08.965Z,1004.29
2022-12-11T05:12:08.940Z,1004.33
2022-12-11T05:13:09.000Z,1004.28
2022-12-11T05:14:08.932Z,1004.32
2022-12-11T05:15:09.393Z,1004.33
2022-12-11T05:16:08.960Z,1004.32
2022-12-11T05:17:08.910Z,1004.30
2022-12-11T05:18:08.877Z,1004.33
2022-12-11T05:19:08.860Z,1004.34
2022-12-11T05:20:08.858Z,1004.34
2022-12-11T05:21:08.894Z,1004.29
2022-12-11T05:22:08.829Z,1004.30
2022-12-11T05:23:08.817Z,1004.30
2022-12-11T05:24:08.818Z,1004.29
2022-12-11T05:25:09.215Z,1004.28
2022-12-11T05:26:08.797Z,1004.27
2022-12-11T05:27:08.786Z,1004.29
2022-12-11T05:28:08.847Z,1004.24
2022-12-11T05:29:08.761Z,1004.26
2022-12-11T05:30:08.745Z,1004.24
2022-12-11T05:31:08.838Z,1004.24
2022-12-11T05:32:08.738Z,1004.22
2022-12-11T05:33:08.707Z,1004.22
2022-12-11T05:34:08.713Z,1004.20
2022-12-11T05:35:08.879Z,1004.23
2022-12-11T05:36:08.686Z,1004.24
2022-12-11T05:37:08.705Z,1004.23
2022-12-11T05:38:08.663Z,1004.25
2022-12-11T05:39:08.646Z,1004.24
2022-12-11T05:40:08.646Z,1004.18
2022-12-11T05:41:08.653Z,1004.21
2022-12-11T05:42:08.673Z,1004.20
2022-12-11T05:43:08.604Z,1004.19
2022-12-11T05:44:08.594Z,1004.20
2022-12-11T05:45:08.969Z,1004.22
2022-12-11T05:46:08.702Z,1004.24
2022-12-11T05:47:08.593Z,1004.22
2022-12-11T05:48:08.568Z,1004.22
2022-12-11T05:49:08.542Z,1004.28
2022-12-11T05:50:08.522Z,1004.25
2022-12-11T05:51:08.552Z,1004.27
2022-12-11T05:52:08.514Z,1004.21
2022-12-11T05:53:08.541Z,1004.20
2022-12-11T05:54:08.483Z,1004.20
2022-12-11T05:55:08.613Z,1004.18
2022-12-11T05:56:08.469Z,1004.20
2022-12-11T05:57:08.464Z,1004.20
2022-12-11T05:58:08.518Z,1004.19
2022-12-11T05:59:08.746Z,1004.18
2022-12-11T06:00:08.411Z,1004.19
2022-12-11T06:01:08.591Z,1004.21
2022-12-11T06:02:08.494Z,1004.15
2022-12-11T06:03:08.497Z,1004.16
2022-12-11T06:04:08.391Z,1004.13
2022-12-11T06:05:08.683Z,1004.14
2022-12-11T06:06:08.378Z,1004.16
2022-12-11T06:07:08.351Z,1004.16
2022-12-11T06:08:08.377Z,1004.15
2022-12-11T06:09:08.375Z,1004.14
2022-12-11T06:10:08.310Z,1004.14
2022-12-11T06:11:08.300Z,1004.08
2022-12-11T06:12:08.331Z,1004.09
2022-12-11T06:13:08.282Z,1004.10
2022-12-11T06:14:08.259Z,1004.11
2022-12-11T06:15:08.434Z,1004.05
2022-12-11T06:16:08.331Z,1004.04
2022-12-11T06:17:08.239Z,1004.04
2022-12-11T06:18:08.278Z,1004.05
2022-12-11T06:19:08.220Z,1004.02
2022-12-11T06:20:08.208Z,1004.02
2022-12-11T06:21:08.198Z,1004.01
2022-12-11T06:22:09.919Z,1004.01
2022-12-11T06:23:08.188Z,1003.99
2022-12-11T06:24:08.157Z,1003.95
2022-12-11T06:25:08.225Z,1003.93
2022-12-11T06:26:08.146Z,1003.97
2022-12-11T06:27:08.171Z,1003.94
2022-12-11T06:28:08.157Z,1003.92
2022-12-11T06:29:12.606Z,1003.94
2022-12-11T06:30:08.107Z,1003.93
2022-12-11T06:31:08.215Z,1003.96
2022-12-11T06:32:08.068Z,1003.91
2022-12-11T06:33:08.077Z,1003.93
2022-12-11T06:34:08.057Z,1003.96
2022-12-11T06:35:08.378Z,1003.94
2022-12-11T06:36:08.037Z,1003.91
2022-12-11T06:37:08.056Z,1003.98
2022-12-11T06:38:08.018Z,1003.95
2022-12-11T06:39:08.005Z,1003.99
2022-12-11T06:40:07.996Z,1004.00
2022-12-11T06:41:07.977Z,1003.98
2022-12-11T06:42:08.026Z,1003.99
2022-12-11T06:43:07.964Z,1004.02
2022-12-11T06:44:07.947Z,1004.00
2022-12-11T06:45:07.984Z,1004.04
2022-12-11T06:46:08.077Z,1004.03
2022-12-11T06:47:07.926Z,1004.02
2022-12-11T06:48:07.915Z,1004.08
2022-12-11T06:49:07.987Z,1004.03
2022-12-11T06:50:07.875Z,1004.02
2022-12-11T06:51:07.884Z,1004.04
2022-12-11T06:52:07.984Z,1004.02
2022-12-11T06:53:07.856Z,1004.05
2022-12-11T06:54:07.844Z,1004.05
2022-12-11T06:55:07.944Z,1004.06
2022-12-11T06:56:07.854Z,1004.08
2022-12-11T06:57:07.860Z,1004.05
2022-12-11T06:58:07.793Z,1004.03
2022-12-11T06:59:07.819Z,1004.08
2022-12-11T07:00:07.770Z,1004.06
2022-12-11T07:01:07.791Z,1004.05
2022-12-11T07:02:07.835Z,1004.10
2022-12-11T07:03:07.805Z,1004.06
2022-12-11T07:04:07.743Z,1004.11
2022-12-11T07:05:07.797Z,1004.08
2022-12-11T07:06:07.719Z,1004.09
2022-12-11T07:07:07.703Z,1004.08
2022-12-11T07:08:07.743Z,1004.08
2022-12-11T07:09:07.804Z,1004.13
2022-12-11T07:10:08.697Z,1004.15
2022-12-11T07:11:07.691Z,1004.14
2022-12-11T07:12:07.657Z,1004.12
2022-12-11T07:13:07.640Z,1004.16
2022-12-11T07:14:07.612Z,1004.21
2022-12-11T07:15:07.619Z,1004.14
2022-12-11T07:16:07.710Z,1004.16
2022-12-11T07:17:07.590Z,1004.14
2022-12-11T07:18:07.580Z,1004.16
2022-12-11T07:19:07.651Z,1004.16
2022-12-11T07:20:07.550Z,1004.12
2022-12-11T07:21:07.549Z,1004.16
2022-12-11T07:22:07.530Z,1004.15
2022-12-11T07:23:07.779Z,1004.14
2022-12-11T07:24:07.564Z,1004.17
2022-12-11T07:25:07.502Z,1004.14
2022-12-11T07:26:07.524Z,1004.14
2022-12-11T07:27:07.492Z,1004.13
2022-12-11T07:28:09.177Z,1004.10
2022-12-11T07:29:07.470Z,1004.07
2022-12-11T07:30:07.509Z,1004.04
2022-12-11T07:31:07.769Z,1004.09
2022-12-11T07:32:07.535Z,1004.03
2022-12-11T07:33:07.446Z,1004.03
2022-12-11T07:34:07.409Z,1004.05
2022-12-11T07:35:07.408Z,1004.08
2022-12-11T07:36:07.461Z,1004.07
2022-12-11T07:37:07.389Z,1004.10
2022-12-11T07:38:07.388Z,1004.11
2022-12-11T07:39:15.635Z,1004.17
2022-12-11T07:40:07.413Z,1004.14
2022-12-11T07:41:07.346Z,1004.14
2022-12-11T07:42:07.344Z,1004.17
2022-12-11T07:43:07.331Z,1004.21
2022-12-11T07:44:07.303Z,1004.17
2022-12-11T07:45:07.311Z,1004.18
2022-12-11T07:46:07.375Z,1004.20
2022-12-11T07:47:07.364Z,1004.16
2022-12-11T07:48:07.253Z,1004.17
2022-12-11T07:49:07.252Z,1004.19
2022-12-11T07:50:07.282Z,1004.17
2022-12-11T07:51:07.262Z,1004.18
2022-12-11T07:52:07.242Z,1004.17
2022-12-11T07:53:07.202Z,1004.18
2022-12-11T07:54:07.191Z,1004.19
2022-12-11T07:55:07.180Z,1004.18
2022-12-11T07:56:07.169Z,1004.20
2022-12-11T07:57:13.979Z,1004.19
2022-12-11T07:58:08.160Z,1004.18
2022-12-11T07:59:07.152Z,1004.15
2022-12-11T08:00:07.119Z,1004.17
2022-12-11T08:01:07.157Z,1004.20
2022-12-11T08:02:07.201Z,1004.13
2022-12-11T08:03:07.132Z,1004.22
2022-12-11T08:04:07.090Z,1004.21
2022-12-11T08:05:07.129Z,1004.23
2022-12-11T08:06:07.076Z,1004.25
2022-12-11T08:07:07.260Z,1004.26
2022-12-11T08:08:07.086Z,1004.25
2022-12-11T08:09:07.034Z,1004.24
2022-12-11T08:10:07.099Z,1004.22
2022-12-11T08:11:07.010Z,1004.24
2022-12-11T08:12:07.028Z,1004.23
2022-12-11T08:13:07.261Z,1004.18
2022-12-11T08:14:07.028Z,1004.16
2022-12-11T08:15:07.271Z,1004.21
2022-12-11T08:16:06.997Z,1004.19
2022-12-11T08:17:07.041Z,1004.17
2022-12-11T08:18:06.941Z,1004.20
2022-12-11T08:19:06.927Z,1004.23
2022-12-11T08:20:06.933Z,1004.18
2022-12-11T08:21:06.942Z,1004.20
2022-12-11T08:22:06.895Z,1004.18
2022-12-11T08:23:07.095Z,1004.18
2022-12-11T08:24:06.998Z,1004.21
2022-12-11T08:25:06.868Z,1004.23
2022-12-11T08:26:06.856Z,1004.25
2022-12-11T08:27:06.888Z,1004.20
2022-12-11T08:28:06.980Z,1004.27
2022-12-11T08:29:06.828Z,1004.21
2022-12-11T08:30:06.857Z,1004.27
2022-12-11T08:31:06.847Z,1004.22
2022-12-11T08:32:12.096Z,1004.28
2022-12-11T08:33:07.767Z,1004.25
2022-12-11T08:34:06.769Z,1004.22
2022-12-11T08:35:06.776Z,1004.22
2022-12-11T08:36:06.747Z,1004.23
2022-12-11T08:37:06.734Z,1004.23
2022-12-11T08:38:06.734Z,1004.22
2022-12-11T08:39:13.726Z,1004.20
2022-12-11T08:40:06.727Z,1004.24
2022-12-11T08:41:06.686Z,1004.22
2022-12-11T08:42:06.696Z,1004.23
2022-12-11T08:43:06.665Z,1004.24
2022-12-11T08:44:08.474Z,1004.21
2022-12-11T08:45:07.691Z,1004.23
2022-12-11T08:46:06.651Z,1004.22
2022-12-11T08:47:06.635Z,1004.29
2022-12-11T08:48:06.612Z,1004.23
2022-12-11T08:49:06.596Z,1004.24
2022-12-11T08:50:06.624Z,1004.24
2022-12-11T08:51:06.702Z,1004.22
2022-12-11T08:52:06.638Z,1004.20
2022-12-11T08:53:06.555Z,1004.21
2022-12-11T08:54:06.534Z,1004.21
2022-12-11T08:55:06.551Z,1004.22
2022-12-11T08:56:06.530Z,1004.19
2022-12-11T08:57:06.634Z,1004.20
2022-12-11T08:58:06.561Z,1004.21
2022-12-11T08:59:06.641Z,1004.18
2022-12-11T09:00:06.480Z,1004.23
2022-12-11T09:01:06.601Z,1004.17
2022-12-11T09:02:06.526Z,1004.18
2022-12-11T09:03:12.513Z,1004.16
2022-12-11T09:04:07.694Z,1004.16
2022-12-11T09:05:06.431Z,1004.18
2022-12-11T09:06:06.490Z,1004.16
2022-12-11T09:07:06.504Z,1004.15
2022-12-11T09:08:06.502Z,1004.15
2022-12-11T09:09:06.484Z,1004.14
2022-12-11T09:10:06.372Z,1004.19
2022-12-11T09:11:06.361Z,1004.19
2022-12-11T09:12:06.366Z,1004.22
2022-12-11T09:13:06.433Z,1004.16
2022-12-11T09:14:07.847Z,1004.19
2022-12-11T09:15:06.329Z,1004.16
2022-12-11T09:16:06.350Z,1004.15
2022-12-11T09:17:06.290Z,1004.15
2022-12-11T09:18:06.286Z,1004.15
2022-12-11T09:19:06.351Z,1004.18
2022-12-11T09:20:06.399Z,1004.21
2022-12-11T09:21:06.320Z,1004.18
2022-12-11T09:22:06.230Z,1004.12
2022-12-11T09:23:06.233Z,1004.16
2022-12-11T09:24:06.340Z,1004.17
2022-12-11T09:25:06.228Z,1004.13
2022-12-11T09:26:06.223Z,1004.10
2022-12-11T09:27:06.199Z,1004.15
2022-12-11T09:28:06.168Z,1004.12
2022-12-11T09:29:06.257Z,1004.12
2022-12-11T09:30:06.151Z,1004.14
2022-12-11T09:31:06.184Z,1004.14
2022-12-11T09:32:06.184Z,1004.13
2022-12-11T09:33:06.130Z,1004.14
2022-12-11T09:34:06.113Z,1004.17
2022-12-11T09:35:06.126Z,1004.19
2022-12-11T09:36:06.099Z,1004.17
2022-12-11T09:37:06.091Z,1004.20
2022-12-11T09:38:06.074Z,1004.20
2022-12-11T09:39:06.151Z,1004.19
2022-12-11T09:40:07.884Z,1004.16
2022-12-11T09:41:06.133Z,1004.12
2022-12-11T09:42:06.131Z,1004.15
2022-12-11T09:43:06.026Z,1004.21
2022-12-11T09:44:06.036Z,1004.15
2022-12-11T09:45:06.008Z,1004.17
2022-12-11T09:46:06.094Z,1004.17
2022-12-11T09:47:11.385Z,1004.14
2022-12-11T09:48:05.957Z,1004.13
2022-12-11T09:49:06.269Z,1004.13
2022-12-11T09:50:06.006Z,1004.12
2022-12-11T09:51:05.946Z,1004.10
2022-12-11T09:52:05.909Z,1004.06
2022-12-11T09:53:05.936Z,1004.03
2022-12-11T09:54:05.906Z,1004.03
2022-12-11T09:55:05.937Z,1004.07
2022-12-11T09:56:05.894Z,1004.07
2022-12-11T09:57:05.863Z,1004.06
2022-12-11T09:58:05.864Z,1004.08
2022-12-11T09:59:05.836Z,1004.11
2022-12-11T10:00:06.089Z,1004.11
2022-12-11T10:01:05.873Z,1004.13
2022-12-11T10:02:05.829Z,1004.10
2022-12-11T10:03:05.797Z,1004.10
2022-12-11T10:04:05.792Z,1004.12
2022-12-11T10:05:05.814Z,1004.09
2022-12-11T10:06:05.853Z,1004.10
2022-12-11T10:07:05.813Z,1004.13
2022-12-11T10:08:05.806Z,1004.13
2022-12-11T10:09:05.752Z,1004.10
2022-12-11T10:10:05.729Z,1004.11
2022-12-11T10:11:05.714Z,1004.04
2022-12-11T10:12:05.701Z,1004.04
2022-12-11T10:13:05.733Z,1004.09
2022-12-11T10:14:05.753Z,1004.07
2022-12-11T10:15:05.709Z,1004.02
2022-12-11T10:16:05.782Z,1004.04
2022-12-11T10:17:05.650Z,1004.05
2022-12-11T10:18:05.665Z,1004.07
2022-12-11T10:19:05.657Z,1004.07
2022-12-11T10:20:05.621Z,1004.03
2022-12-11T10:21:05.632Z,1004.04
2022-12-11T10:22:05.623Z,1004.05
2022-12-11T10:23:05.723Z,1004.05
2022-12-11T10:24:05.570Z,1004.05
2022-12-11T10:25:12.904Z,1004.02
2022-12-11T10:26:06.570Z,1003.98
2022-12-11T10:27:05.600Z,1004.04
2022-12-11T10:28:05.555Z,1003.99
2022-12-11T10:29:05.522Z,1004.00
2022-12-11T10:30:05.601Z,1004.02
2022-12-11T10:31:05.577Z,1003.98
2022-12-11T10:32:05.487Z,1004.00
2022-12-11T10:33:05.514Z,1003.97
2022-12-11T10:34:05.472Z,1003.94
2022-12-11T10:35:05.453Z,1003.91
2022-12-11T10:36:05.439Z,1003.87
2022-12-11T10:37:05.480Z,1003.89
2022-12-11T10:38:05.421Z,1003.83
2022-12-11T10:39:05.448Z,1003.85
2022-12-11T10:40:05.405Z,1003.83
2022-12-11T10:41:05.411Z,1003.81
2022-12-11T10:42:05.378Z,1003.82
2022-12-11T10:43:05.409Z,1003.85
2022-12-11T10:44:05.357Z,1003.86
2022-12-11T10:45:05.338Z,1003.86
2022-12-11T10:46:05.382Z,1003.84
2022-12-11T10:47:05.325Z,1003.87
2022-12-11T10:48:05.317Z,1003.83
2022-12-11T10:49:05.358Z,1003.81
2022-12-11T10:50:05.336Z,1003.78
2022-12-11T10:51:05.287Z,1003.84
2022-12-11T10:52:05.287Z,1003.79
2022-12-11T10:53:05.258Z,1003.80
2022-12-11T10:54:07.476Z,1003.82
2022-12-11T10:55:05.237Z,1003.81
2022-12-11T10:56:05.238Z,1003.77
2022-12-11T10:57:05.224Z,1003.80
2022-12-11T10:58:05.215Z,1003.79
2022-12-11T10:59:05.189Z,1003.84
2022-12-11T11:00:05.489Z,1003.79
2022-12-11T11:01:05.205Z,1003.79
2022-12-11T11:02:05.251Z,1003.78
2022-12-11T11:03:05.195Z,1003.81
2022-12-11T11:04:05.365Z,1003.79
2022-12-11T11:05:05.127Z,1003.82
2022-12-11T11:06:05.150Z,1003.83
2022-12-11T11:07:05.117Z,1003.76
2022-12-11T11:08:05.196Z,1003.80
2022-12-11T11:09:05.143Z,1003.79
2022-12-11T11:10:05.106Z,1003.77
2022-12-11T11:11:05.116Z,1003.77
2022-12-11T11:12:08.130Z,1003.81
2022-12-11T11:13:05.052Z,1003.77
2022-12-11T11:14:05.035Z,1003.77
2022-12-11T11:15:05.045Z,1003.73
2022-12-11T11:16:05.325Z,1003.74
2022-12-11T11:17:05.021Z,1003.74
2022-12-11T11:18:04.985Z,1003.77
2022-12-11T11:19:04.992Z,1003.77
2022-12-11T11:20:04.974Z,1003.76
2022-12-11T11:21:05.015Z,1003.75
2022-12-11T11:22:04.944Z,1003.74
2022-12-11T11:23:04.932Z,1003.73
2022-12-11T11:24:04.933Z,1003.72
2022-12-11T11:25:04.944Z,1003.69
2022-12-11T11:26:04.923Z,1003.67
2022-12-11T11:27:13.061Z,1003.71
2022-12-11T11:28:05.922Z,1003.72
2022-12-11T11:29:04.884Z,1003.69
2022-12-11T11:30:04.862Z,1003.71
2022-12-11T11:31:04.922Z,1003.71
2022-12-11T11:32:04.931Z,1003.71
2022-12-11T11:33:04.858Z,1003.67
2022-12-11T11:34:04.834Z,1003.71
2022-12-11T11:35:04.824Z,1003.64
2022-12-11T11:36:04.872Z,1003.65
2022-12-11T11:37:04.824Z,1003.63
2022-12-11T11:38:04.910Z,1003.66
2022-12-11T11:39:04.855Z,1003.66
2022-12-11T11:40:04.744Z,1003.64
2022-12-11T11:41:08.873Z,1003.65
2022-12-11T11:42:05.758Z,1003.60
2022-12-11T11:43:04.939Z,1003.60
2022-12-11T11:44:04.718Z,1003.65
2022-12-11T11:45:04.691Z,1003.57
2022-12-11T11:46:04.763Z,1003.59
2022-12-11T11:47:04.672Z,1003.60
2022-12-11T11:48:10.951Z,1003.58
2022-12-11T11:49:07.408Z,1003.60
2022-12-11T11:50:04.663Z,1003.56
2022-12-11T11:51:04.642Z,1003.62
2022-12-11T11:52:04.645Z,1003.64
2022-12-11T11:53:04.626Z,1003.61
2022-12-11T11:54:04.636Z,1003.60
2022-12-11T11:55:04.577Z,1003.59
2022-12-11T11:56:04.631Z,1003.56
2022-12-11T11:57:04.597Z,1003.54
2022-12-11T11:58:04.556Z,1003.55
2022-12-11T11:59:04.539Z,1003.55
2022-12-11T12:00:04.580Z,1003.56
2022-12-11T12:01:04.518Z,1003.53
2022-12-11T12:02:04.518Z,1003.47
2022-12-11T12:03:04.586Z,1003.48
2022-12-11T12:04:04.574Z,1003.52
2022-12-11T12:05:04.476Z,1003.51
2022-12-11T12:06:04.514Z,1003.49